createdAt,value
2019-04-10T00:00:46.029Z,7.33
2019-04-10T00:03:25.838Z,11.57
2019-04-10T00:05:47.960Z,10.33
2019-04-10T00:08:19.821Z,7.83
2019-04-10T00:10:49.717Z,9.80
2019-04-10T00:13:20.558Z,9.53
2019-04-10T00:15:50.869Z,7.60
2019-04-10T00:18:20.598Z,8.97
2019-04-10T00:20:51.104Z,7.60
2019-04-10T00:23:21.346Z,7.10
2019-04-10T00:25:51.134Z,8.73
2019-04-10T00:28:21.284Z,5.70
2019-04-10T00:30:51.558Z,7.40
2019-04-10T00:33:21.389Z,5.13
2019-04-10T00:35:51.951Z,6.20
2019-04-10T00:38:21.887Z,5.87
2019-04-10T00:40:52.004Z,5.13
2019-04-10T00:43:22.591Z,7.37
2019-04-10T00:45:53.592Z,6.50
2019-04-10T00:48:23.971Z,7.43
2019-04-10T00:50:53.752Z,5.37
2019-04-10T00:53:23.668Z,8.80
2019-04-10T00:55:54.314Z,5.40
2019-04-10T00:58:24.405Z,6.03
2019-04-10T01:00:55.062Z,7.07
2019-04-10T01:03:56.392Z,6.03
2019-04-10T01:06:28.178Z,5.23
2019-04-10T01:08:57.942Z,5.70
2019-04-10T01:11:27.693Z,6.97
2019-04-10T01:13:59.054Z,6.30
2019-04-10T01:16:28.970Z,6.07
2019-04-10T01:18:59.516Z,6.03
2019-04-10T01:21:30.457Z,6.17
2019-04-10T01:24:00.221Z,5.50
2019-04-10T01:26:30.077Z,5.83
2019-04-10T01:29:00.849Z,8.10
2019-04-10T01:31:30.986Z,12.57
2019-04-10T01:34:01.072Z,6.70
2019-04-10T01:36:31.150Z,5.67
2019-04-10T01:39:02.121Z,7.57
2019-04-10T01:41:32.766Z,9.17
2019-04-10T01:44:07.586Z,6.80
2019-04-10T01:46:38.133Z,5.60
2019-04-10T01:49:09.199Z,5.03
2019-04-10T01:51:39.341Z,7.03
2019-04-10T01:54:09.226Z,6.30
2019-04-10T01:56:39.700Z,4.07
2019-04-10T01:59:10.192Z,5.40
2019-04-10T02:01:45.652Z,10.27
2019-04-10T02:04:16.333Z,4.77
2019-04-10T02:06:46.171Z,4.77
2019-04-10T02:09:16.128Z,9.10
2019-04-10T02:11:46.076Z,8.13
2019-04-10T02:14:16.268Z,5.00
2019-04-10T02:16:47.238Z,7.60
2019-04-10T02:19:17.055Z,6.23
2019-04-10T02:21:47.729Z,4.77
2019-04-10T02:24:18.734Z,8.30
2019-04-10T02:26:48.568Z,8.53
2019-04-10T02:29:19.614Z,5.07
2019-04-10T02:31:50.658Z,4.77
2019-04-10T02:34:23.153Z,5.77
2019-04-10T02:36:53.088Z,11.43
2019-04-10T02:39:31.372Z,3.70
2019-04-10T02:41:54.571Z,4.67
2019-04-10T02:44:31.263Z,3.30
2019-04-10T02:47:02.113Z,5.33
2019-04-10T02:49:32.217Z,5.50
2019-04-10T02:52:02.118Z,6.00
2019-04-10T02:54:33.420Z,5.20
2019-04-10T02:57:03.649Z,5.07
2019-04-10T02:59:35.154Z,3.93
2019-04-10T03:02:06.417Z,5.60
2019-04-10T03:04:37.226Z,6.17
2019-04-10T03:07:11.350Z,5.87
2019-04-10T03:09:56.310Z,7.10
2019-04-10T03:12:14.531Z,4.80
2019-04-10T03:14:47.296Z,5.10
2019-04-10T03:17:17.636Z,5.30
2019-04-10T03:19:47.820Z,4.70
2019-04-10T03:22:18.718Z,5.43
2019-04-10T03:24:48.828Z,5.43
2019-04-10T03:27:19.229Z,7.47
2019-04-10T03:29:50.418Z,6.20
2019-04-10T03:32:55.009Z,4.93
2019-04-10T03:35:38.856Z,7.07
2019-04-10T03:38:09.777Z,6.77
2019-04-10T03:40:39.720Z,5.87
2019-04-10T03:43:09.807Z,5.80
2019-04-10T03:45:39.697Z,9.00
2019-04-10T03:48:09.741Z,5.20
2019-04-10T03:50:39.893Z,5.73
2019-04-10T03:53:09.788Z,4.90
2019-04-10T03:55:39.789Z,4.50
2019-04-10T03:58:09.597Z,5.43
2019-04-10T04:00:40.434Z,6.37
2019-04-10T04:03:10.661Z,6.30
2019-04-10T04:05:40.544Z,9.13
2019-04-10T04:08:10.951Z,5.00
2019-04-10T04:10:40.820Z,7.00
2019-04-10T04:13:11.132Z,6.33
2019-04-10T04:15:42.141Z,8.93
2019-04-10T04:18:12.921Z,6.63
2019-04-10T04:20:43.329Z,5.33
2019-04-10T04:23:14.057Z,6.47
2019-04-10T04:25:44.114Z,6.60
2019-04-10T04:28:14.693Z,3.50
2019-04-10T04:30:45.618Z,6.10
2019-04-10T04:33:15.535Z,7.37
2019-04-10T04:35:45.920Z,7.77
2019-04-10T04:38:16.383Z,8.10
2019-04-10T04:40:46.363Z,9.00
2019-04-10T04:43:16.672Z,6.03
2019-04-10T04:45:46.680Z,7.50
2019-04-10T04:48:17.064Z,6.53
2019-04-10T04:50:47.245Z,7.00
2019-04-10T04:53:18.363Z,8.10
2019-04-10T04:55:48.287Z,7.33
2019-04-10T04:58:18.148Z,6.80
2019-04-10T05:00:48.311Z,8.97
2019-04-10T05:03:18.633Z,7.47
2019-04-10T05:05:48.460Z,8.63
2019-04-10T05:08:18.393Z,8.63
2019-04-10T05:10:49.535Z,9.13
2019-04-10T05:13:19.705Z,6.60
2019-04-10T05:15:49.577Z,13.23
2019-04-10T05:18:19.333Z,9.43
2019-04-10T05:20:50.889Z,8.37
2019-04-10T05:23:20.544Z,9.43
2019-04-10T05:25:50.282Z,8.57
2019-04-10T05:28:20.440Z,7.17
2019-04-10T05:30:51.191Z,9.70
2019-04-10T05:33:21.019Z,8.33
2019-04-10T05:35:50.921Z,12.00
2019-04-10T05:38:21.112Z,7.30
2019-04-10T05:40:50.924Z,11.40
2019-04-10T05:43:23.984Z,12.57
2019-04-10T05:45:55.140Z,7.13
2019-04-10T05:48:26.196Z,7.87
2019-04-10T05:51:02.366Z,7.03
2019-04-10T05:53:28.867Z,8.93
2019-04-10T05:55:58.691Z,7.43
2019-04-10T05:58:29.361Z,10.23
2019-04-10T06:01:01.279Z,11.33
2019-04-10T06:03:31.051Z,7.37
2019-04-10T06:06:01.202Z,13.17
2019-04-10T06:08:31.867Z,10.33
2019-04-10T06:11:01.643Z,8.07
2019-04-10T06:13:32.537Z,10.77
2019-04-10T06:16:05.630Z,5.50
2019-04-10T06:18:37.458Z,8.13
2019-04-10T06:21:07.379Z,8.90
2019-04-10T06:23:37.305Z,9.30
2019-04-10T06:26:07.097Z,6.83
2019-04-10T06:28:46.505Z,9.13
2019-04-10T06:31:17.280Z,12.67
2019-04-10T06:33:48.644Z,9.57
2019-04-10T06:36:21.482Z,11.40
2019-04-10T06:38:53.315Z,10.10
2019-04-10T06:41:24.290Z,9.20
2019-04-10T06:43:57.178Z,11.87
2019-04-10T06:46:27.147Z,10.87
2019-04-10T06:48:56.945Z,12.17
2019-04-10T06:51:27.234Z,11.77
2019-04-10T06:54:02.601Z,9.60
2019-04-10T06:56:29.222Z,8.27
2019-04-10T06:59:00.279Z,10.97
2019-04-10T07:01:42.329Z,11.87
2019-04-10T07:04:06.555Z,11.43
2019-04-10T07:06:49.298Z,13.50
2019-04-10T07:09:07.600Z,13.43
2019-04-10T07:11:38.545Z,11.80
2019-04-10T07:14:12.571Z,9.23
2019-04-10T07:16:40.290Z,12.63
2019-04-10T07:19:11.932Z,10.63
2019-04-10T07:21:42.708Z,9.80
2019-04-10T07:24:15.035Z,9.63
2019-04-10T07:26:46.570Z,10.20
2019-04-10T07:29:18.738Z,18.27
2019-04-10T07:31:47.229Z,11.70
2019-04-10T07:34:20.019Z,13.47
2019-04-10T07:36:49.830Z,11.43
2019-04-10T07:39:19.726Z,15.10
2019-04-10T07:41:49.841Z,12.80
2019-04-10T07:44:30.944Z,10.70
2019-04-10T07:47:00.960Z,12.10
2019-04-10T07:49:31.379Z,12.23
2019-04-10T07:52:03.395Z,11.13
2019-04-10T07:54:34.945Z,11.63
2019-04-10T07:57:08.370Z,13.30
2019-04-10T07:59:38.605Z,10.40
2019-04-10T08:02:10.083Z,11.53
2019-04-10T08:04:40.038Z,12.73
2019-04-10T08:07:09.827Z,14.17
2019-04-10T08:09:39.978Z,12.83
2019-04-10T08:12:09.844Z,13.93
2019-04-10T08:14:39.906Z,13.43
2019-04-10T08:17:10.250Z,13.10
2019-04-10T08:19:41.107Z,16.30
2019-04-10T08:22:11.002Z,14.17
2019-04-10T08:24:40.857Z,14.03
2019-04-10T08:27:13.722Z,12.20
2019-04-10T08:29:44.662Z,11.87
2019-04-10T08:32:15.746Z,13.13
2019-04-10T08:34:46.457Z,13.80
2019-04-10T08:37:17.380Z,13.10
2019-04-10T08:39:49.700Z,12.40
2019-04-10T08:42:22.426Z,12.20
2019-04-10T08:44:52.684Z,15.90
2019-04-10T08:47:22.768Z,22.77
2019-04-10T08:49:54.957Z,18.73
2019-04-10T08:52:26.313Z,14.87
2019-04-10T08:54:59.527Z,14.20
2019-04-10T08:57:29.767Z,12.27
2019-04-10T09:00:02.733Z,14.30
2019-04-10T09:02:34.456Z,12.97
2019-04-10T09:05:05.602Z,12.73
2019-04-10T09:07:35.925Z,13.30
2019-04-10T09:10:06.474Z,14.00
2019-04-10T09:12:36.301Z,14.00
2019-04-10T09:15:07.781Z,12.97
2019-04-10T09:17:38.117Z,13.10
2019-04-10T09:20:08.801Z,11.30
2019-04-10T09:22:57.982Z,13.33
2019-04-10T09:25:11.134Z,12.33
2019-04-10T09:27:42.861Z,13.17
2019-04-10T09:30:14.431Z,14.47
2019-04-10T09:32:46.526Z,12.47
2019-04-10T09:35:17.914Z,13.37
2019-04-10T09:37:50.442Z,19.40
2019-04-10T09:40:22.522Z,14.33
2019-04-10T09:42:53.665Z,13.00
2019-04-10T09:45:25.126Z,15.00
2019-04-10T09:48:10.563Z,14.30
2019-04-10T09:50:42.277Z,13.67
2019-04-10T09:53:16.951Z,14.97
2019-04-10T09:55:52.435Z,13.87
2019-04-10T09:58:27.355Z,13.43
2019-04-10T10:01:02.074Z,15.87
2019-04-10T10:03:34.642Z,12.93
2019-04-10T10:06:08.821Z,13.50
2019-04-10T10:08:41.660Z,13.20
2019-04-10T10:11:13.758Z,13.40
2019-04-10T10:13:48.233Z,12.00
2019-04-10T10:16:25.362Z,14.53
2019-04-10T10:18:57.354Z,15.10
2019-04-10T10:21:29.262Z,18.40
2019-04-10T10:24:00.325Z,12.57
2019-04-10T10:26:32.940Z,16.00
2019-04-10T10:29:04.602Z,14.70
2019-04-10T10:31:36.072Z,11.67
2019-04-10T10:34:06.989Z,11.30
2019-04-10T10:36:41.914Z,10.30
2019-04-10T10:39:19.068Z,11.10
2019-04-10T10:41:51.062Z,13.27
2019-04-10T10:44:30.180Z,10.33
2019-04-10T10:47:01.975Z,11.80
2019-04-10T10:49:32.917Z,15.73
2019-04-10T10:52:04.528Z,14.43
2019-04-10T10:54:34.980Z,10.73
2019-04-10T10:57:05.323Z,11.80
2019-04-10T10:59:35.641Z,13.10
2019-04-10T11:02:08.459Z,14.23
2019-04-10T11:04:39.872Z,11.23
2019-04-10T11:07:10.846Z,11.47
2019-04-10T11:09:44.212Z,12.23
2019-04-10T11:12:14.325Z,13.37
2019-04-10T11:14:44.157Z,12.70
2019-04-10T11:17:14.095Z,14.20
2019-04-10T11:19:45.547Z,11.70
2019-04-10T11:22:21.807Z,11.70
2019-04-10T11:24:47.223Z,11.30
2019-04-10T11:27:18.030Z,10.93
2019-04-10T11:29:47.872Z,11.50
2019-04-10T11:32:19.650Z,15.23
2019-04-10T11:34:50.701Z,12.67
2019-04-10T11:37:31.776Z,13.93
2019-04-10T11:39:56.224Z,13.10
2019-04-10T11:42:29.032Z,13.40
2019-04-10T11:45:05.211Z,14.47
2019-04-10T11:47:36.375Z,10.77
2019-04-10T11:50:10.387Z,11.63
2019-04-10T11:52:46.619Z,13.03
2019-04-10T11:55:16.133Z,10.60
2019-04-10T11:57:45.856Z,11.13
2019-04-10T12:00:19.606Z,14.40
2019-04-10T12:02:49.622Z,11.33
2019-04-10T12:05:20.179Z,13.30
2019-04-10T12:08:17.984Z,11.93
2019-04-10T12:12:54.377Z,11.97
2019-04-10T12:15:24.274Z,15.23
2019-04-10T12:17:54.221Z,11.93
2019-04-10T12:20:24.972Z,14.93
2019-04-10T12:22:54.903Z,21.33
2019-04-10T12:25:25.580Z,12.23
2019-04-10T12:27:55.769Z,15.83
2019-04-10T12:30:26.934Z,14.30
2019-04-10T12:32:56.887Z,10.87
2019-04-10T12:35:26.744Z,11.67
2019-04-10T12:38:02.569Z,14.17
2019-04-10T12:40:29.280Z,10.33
2019-04-10T12:42:59.245Z,11.00
2019-04-10T12:45:29.031Z,13.07
2019-04-10T12:47:59.204Z,12.80
2019-04-10T12:50:29.165Z,12.60
2019-04-10T12:52:59.100Z,11.73
2019-04-10T12:55:32.530Z,11.47
2019-04-10T12:58:08.583Z,9.70
2019-04-10T13:00:34.038Z,11.50
2019-04-10T13:03:05.263Z,13.40
2019-04-10T13:05:35.639Z,11.47
2019-04-10T13:08:14.778Z,9.40
2019-04-10T13:10:37.801Z,11.70
2019-04-10T13:13:07.797Z,14.23
2019-04-10T13:15:37.660Z,12.40
2019-04-10T13:18:07.973Z,9.20
2019-04-10T13:20:38.131Z,11.23
2019-04-10T13:23:08.663Z,10.60
2019-04-10T13:25:38.713Z,11.87
2019-04-10T13:28:09.739Z,11.60
2019-04-10T13:30:47.935Z,9.53
2019-04-10T13:33:12.629Z,10.80
2019-04-10T13:35:42.566Z,9.40
2019-04-10T13:38:23.276Z,12.23
2019-04-10T13:40:44.199Z,8.30
2019-04-10T13:43:14.097Z,10.30
2019-04-10T13:45:44.009Z,12.27
2019-04-10T13:48:14.526Z,8.40
2019-04-10T13:50:44.978Z,8.87
2019-04-10T13:53:15.501Z,8.53
2019-04-10T13:55:45.440Z,11.00
2019-04-10T13:58:15.386Z,6.83
2019-04-10T14:00:45.311Z,10.80
2019-04-10T14:03:16.358Z,9.50
2019-04-10T14:05:47.673Z,7.80
2019-04-10T14:08:18.674Z,10.40
2019-04-10T14:10:48.909Z,9.27
2019-04-10T14:13:19.866Z,8.50
2019-04-10T14:15:50.435Z,10.67
2019-04-10T14:18:20.343Z,8.60
2019-04-10T14:20:51.317Z,9.57
2019-04-10T14:23:31.592Z,7.30
2019-04-10T14:26:24.502Z,8.40
2019-04-10T14:28:55.488Z,10.33
2019-04-10T14:31:34.734Z,7.83
2019-04-10T14:34:04.983Z,8.60
2019-04-10T14:36:35.998Z,7.07
2019-04-10T14:39:16.714Z,10.40
2019-04-10T14:41:44.749Z,6.70
2019-04-10T14:44:15.047Z,10.83
2019-04-10T14:46:44.929Z,8.10
2019-04-10T14:49:14.706Z,7.40
2019-04-10T14:51:44.491Z,6.60
2019-04-10T14:54:15.560Z,7.00
2019-04-10T14:56:46.356Z,7.07
2019-04-10T14:59:16.414Z,6.67
2019-04-10T15:01:46.306Z,7.90
2019-04-10T15:04:17.416Z,6.40
2019-04-10T15:06:47.996Z,7.00
2019-04-10T15:09:25.591Z,8.73
2019-04-10T15:11:53.474Z,7.53
2019-04-10T15:14:23.779Z,7.50
2019-04-10T15:17:00.096Z,8.43
2019-04-10T15:19:25.176Z,8.20
2019-04-10T15:21:55.722Z,9.23
2019-04-10T15:24:25.891Z,7.00
2019-04-10T15:26:55.776Z,8.30
2019-04-10T15:29:25.573Z,6.67
2019-04-10T15:31:55.899Z,6.67
2019-04-10T15:34:26.133Z,7.83
2019-04-10T15:36:56.592Z,9.03
2019-04-10T15:39:34.076Z,8.90
2019-04-10T15:41:58.068Z,7.33
2019-04-10T15:44:34.285Z,8.77
2019-04-10T15:47:13.423Z,7.83
2019-04-10T15:49:37.330Z,6.17
2019-04-10T15:52:07.828Z,6.80
2019-04-10T15:54:38.191Z,6.23
2019-04-10T15:57:08.776Z,8.93
2019-04-10T15:59:38.751Z,11.57
2019-04-10T16:02:08.724Z,9.17
2019-04-10T16:04:38.980Z,10.20
2019-04-10T16:07:09.828Z,8.87
2019-04-10T16:09:47.644Z,8.93
2019-04-10T16:12:14.398Z,9.67
2019-04-10T16:14:44.888Z,7.67
2019-04-10T16:17:24.239Z,6.70
2019-04-10T16:20:21.830Z,8.47
2019-04-10T16:23:12.371Z,6.80
2019-04-10T16:25:48.460Z,15.20
2019-04-10T16:28:18.464Z,7.90
2019-04-10T16:30:48.634Z,5.73
2019-04-10T16:33:18.913Z,9.00
2019-04-10T16:35:49.022Z,6.33
2019-04-10T16:38:19.123Z,8.17
2019-04-10T16:40:48.972Z,13.40
2019-04-10T16:43:20.121Z,7.30
2019-04-10T16:45:50.992Z,6.20
2019-04-10T16:48:21.071Z,8.80
2019-04-10T16:50:52.027Z,8.43
2019-04-10T16:53:29.936Z,6.67
2019-04-10T16:56:00.980Z,7.90
2019-04-10T16:58:31.885Z,8.47
2019-04-10T17:01:02.785Z,8.73
2019-04-10T17:03:33.825Z,9.57
2019-04-10T17:06:03.965Z,6.73
2019-04-10T17:08:34.298Z,6.57
2019-04-10T17:11:05.522Z,7.13
2019-04-10T17:13:35.821Z,6.33
2019-04-10T17:16:05.675Z,6.20
2019-04-10T17:18:36.006Z,7.10
2019-04-10T17:21:05.921Z,7.70
2019-04-10T17:23:36.645Z,5.97
2019-04-10T17:26:11.071Z,11.40
2019-04-10T17:28:40.928Z,8.73
2019-04-10T17:31:11.025Z,6.27
2019-04-10T17:33:41.868Z,8.13
2019-04-10T17:36:11.985Z,7.23
2019-04-10T17:38:42.802Z,7.47
2019-04-10T17:41:12.702Z,7.80
2019-04-10T17:43:43.471Z,10.73
2019-04-10T17:46:13.508Z,6.77
2019-04-10T17:48:44.161Z,7.63
2019-04-10T17:51:14.120Z,6.07
2019-04-10T17:53:45.283Z,8.30
2019-04-10T17:56:15.888Z,7.43
2019-04-10T17:58:46.100Z,6.80
2019-04-10T18:01:18.880Z,11.53
2019-04-10T18:03:52.186Z,6.70
2019-04-10T18:06:21.373Z,7.53
2019-04-10T18:08:52.056Z,8.70
2019-04-10T18:11:22.394Z,6.73
2019-04-10T18:13:53.064Z,6.97
2019-04-10T18:16:23.090Z,6.47
2019-04-10T18:18:53.884Z,10.57
2019-04-10T18:21:24.590Z,7.07
2019-04-10T18:23:55.657Z,6.53
2019-04-10T18:26:25.950Z,7.07
2019-04-10T18:28:56.148Z,8.30
2019-04-10T18:31:27.768Z,8.40
2019-04-10T18:33:58.708Z,6.43
2019-04-10T18:36:29.775Z,8.57
2019-04-10T18:38:59.824Z,11.27
2019-04-10T18:41:33.132Z,11.50
2019-04-10T18:44:06.887Z,9.73
2019-04-10T18:46:37.654Z,9.07
2019-04-10T18:49:07.551Z,9.80
2019-04-10T18:51:38.222Z,7.73
2019-04-10T18:54:09.709Z,10.33
2019-04-10T18:56:39.641Z,8.43
2019-04-10T18:59:29.121Z,7.00
2019-04-10T19:02:23.344Z,8.30
2019-04-10T19:05:14.003Z,7.10
2019-04-10T19:07:41.220Z,10.93
2019-04-10T19:10:12.878Z,8.60
2019-04-10T19:12:43.260Z,8.50
2019-04-10T19:15:14.564Z,8.93
2019-04-10T19:17:44.880Z,8.40
2019-04-10T19:20:15.745Z,8.47
2019-04-10T19:22:45.595Z,8.20
2019-04-10T19:25:16.448Z,8.37
2019-04-10T19:27:46.604Z,11.10
2019-04-10T19:30:37.296Z,7.20
2019-04-10T19:33:07.994Z,9.33
2019-04-10T19:35:37.971Z,12.57
2019-04-10T19:38:09.246Z,7.13
2019-04-10T19:40:40.360Z,7.77
2019-04-10T19:43:10.484Z,10.43
2019-04-10T19:45:41.890Z,13.03
2019-04-10T19:48:12.008Z,6.83
2019-04-10T19:50:43.614Z,8.13
2019-04-10T19:53:15.715Z,6.43
2019-04-10T19:55:46.264Z,8.30
2019-04-10T19:58:16.267Z,8.73
2019-04-10T20:00:46.559Z,8.60
2019-04-10T20:03:16.403Z,9.70
2019-04-10T20:05:46.257Z,9.80
2019-04-10T20:08:17.498Z,8.43
2019-04-10T20:10:48.427Z,14.77
2019-04-10T20:13:18.693Z,10.93
2019-04-10T20:15:49.143Z,10.20
2019-04-10T20:18:18.968Z,6.50
2019-04-10T20:20:48.902Z,8.70
2019-04-10T20:23:19.466Z,9.50
2019-04-10T20:25:50.425Z,18.67
2019-04-10T20:28:20.603Z,10.00
2019-04-10T20:30:53.738Z,10.00
2019-04-10T20:33:22.928Z,6.27
2019-04-10T20:35:52.952Z,7.90
2019-04-10T20:38:23.172Z,7.27
2019-04-10T20:40:53.960Z,8.23
2019-04-10T20:43:23.906Z,6.93
2019-04-10T20:45:54.116Z,8.50
2019-04-10T20:48:24.508Z,5.20
2019-04-10T20:50:54.412Z,4.47
2019-04-10T20:53:24.774Z,7.00
2019-04-10T20:55:54.549Z,7.87
2019-04-10T20:58:25.352Z,8.40
2019-04-10T21:00:55.346Z,6.87
2019-04-10T21:03:25.373Z,7.63
2019-04-10T21:05:56.185Z,8.90
2019-04-10T21:08:26.201Z,9.37
2019-04-10T21:10:56.937Z,6.07
2019-04-10T21:13:26.770Z,9.30
2019-04-10T21:15:56.966Z,7.13
2019-04-10T21:18:27.244Z,5.80
2019-04-10T21:20:57.592Z,6.30
2019-04-10T21:23:27.780Z,9.30
2019-04-10T21:25:57.577Z,7.50
2019-04-10T21:28:28.294Z,6.60
2019-04-10T21:31:11.763Z,4.97
2019-04-10T21:33:54.839Z,7.83
2019-04-10T21:36:24.695Z,5.17
2019-04-10T21:38:54.703Z,6.13
2019-04-10T21:41:24.485Z,5.73
2019-04-10T21:43:54.360Z,10.27
2019-04-10T21:46:24.519Z,6.17
2019-04-10T21:48:57.366Z,7.67
2019-04-10T21:51:28.483Z,8.50
2019-04-10T21:53:58.394Z,7.20
2019-04-10T21:56:28.749Z,7.30
2019-04-10T21:58:59.138Z,6.20
2019-04-10T22:01:30.427Z,6.13
2019-04-10T22:04:00.571Z,7.07
2019-04-10T22:06:39.952Z,8.03
2019-04-10T22:09:28.473Z,8.20
2019-04-10T22:12:01.486Z,5.20
2019-04-10T22:14:31.810Z,6.43
2019-04-10T22:17:02.353Z,8.43
2019-04-10T22:19:35.198Z,5.53
2019-04-10T22:22:04.284Z,6.33
2019-04-10T22:24:34.322Z,6.90
2019-04-10T22:27:05.084Z,6.53
2019-04-10T22:29:34.973Z,8.00
2019-04-10T22:32:06.296Z,8.13
2019-04-10T22:34:36.515Z,4.83
2019-04-10T22:37:06.451Z,5.27
2019-04-10T22:39:36.572Z,5.90
2019-04-10T22:42:07.584Z,6.40
2019-04-10T22:44:42.327Z,7.47
2019-04-10T22:47:09.205Z,8.13
2019-04-10T22:49:39.491Z,6.13
2019-04-10T22:52:09.381Z,6.70
2019-04-10T22:54:39.208Z,8.57
2019-04-10T22:57:09.098Z,8.23
2019-04-10T22:59:40.365Z,5.63
2019-04-10T23:02:12.029Z,5.20
2019-04-10T23:04:42.814Z,5.90
2019-04-10T23:07:13.519Z,9.20
2019-04-10T23:09:44.407Z,6.40
2019-04-10T23:12:14.376Z,7.07
2019-04-10T23:14:44.937Z,4.53
2019-04-10T23:17:14.840Z,5.00
2019-04-10T23:19:44.778Z,6.90
2019-04-10T23:22:14.670Z,8.07
2019-04-10T23:24:45.549Z,8.47
2019-04-10T23:27:15.618Z,6.40
2019-04-10T23:29:46.515Z,7.37
2019-04-10T23:32:17.292Z,5.97
2019-04-10T23:34:47.303Z,6.80
2019-04-10T23:37:18.332Z,6.50
2019-04-10T23:39:48.321Z,6.83
2019-04-10T23:42:19.221Z,7.23
2019-04-10T23:44:49.177Z,5.13
2019-04-10T23:47:20.102Z,6.23
2019-04-10T23:49:50.101Z,6.90
2019-04-10T23:52:20.082Z,5.17
2019-04-10T23:54:51.370Z,4.73
2019-04-10T23:57:21.394Z,6.20
2019-04-10T23:59:51.165Z,5.37
